map of LIS home
LIS - Airport
Location
City:  Lisbon, Lisboa, Portugal
Near (Alt.):Lisboa
Name:Aeroporto da Portela de Sacavem
ICAO:LPPT
IATA:LIS

Details
Type:Airport (Aerodrome, Airfield)
Use:Public/Civil, Military, International (customs port of entry)
Latitude:3846'53"N (38.781311)
Longitude:908'09"W (-9.135918)
Datum:WGS 1984
Elevation:374 ft (114 m)
Variation:2.41W (WMM2015 magnetic declination)
0.13 annual change
Runways:2
Longest:12484 × 148 ft (3805 × 45 m), paved

Time
Time Zone:UTC+0 (DST+1)
Local Time:

Weather
METAR:LPPT 260030Z 33016KT CAVOK 19/15 Q1015
TAF:LPPT 252300Z 2600/2706 35010KT CAVOK
BECMG 2615/2617 34015KT
BECMG 2621/2624 35010KT

Related Locations
Nearby:
Farthest:NPL: 12263 mi / 19735 km
New Plymouth, TKI, NZ

Find:

   beyond  
but within

Other Information
Maps:
NOTAMs:
Links:
Sources:

  
flag of Portugal
flag of Lisbon
  

Sectional Chart

Flight Planning
at skyvector.com

Satellite Image

Google Maps Satellite view

 

Copyright © 2004-2017 Karl L. Swartz. All rights reserved.
The Great Circle Mapper name and logo are trademarks of the Great Circle Mapper.
All other trademarks mentioned herein belong to their respective owners.
Please see credits for attibutions and further copyright information.

  Follow gcmap on Facebook Follow gcmap on Twitter Follow gcmap on Google+ GCmap on LinkedIn

hCard Microformat

Geo Microformat